Steyr, Austria
Current Conditions -  °F | °C
As of 6:50 PM on Sunday 21 Dec 2014 (Local Time) from LOWL Reporting Station
Scattered Clouds Scattered Clouds  
Wind Chill:   Ceiling: Unl
Heat Index:   Visibility: 6mi
Dew Point:   Wind: 13mph
Humidity: 70%   Direction: 240°WSW
Pressure: 30.42"   Gusts: NA
Location:  48.04°N, 14.41°E
Report Text: LOWL 211750Z 24011KT 9999 FEW050 SCT120 05/M00 Q1030 NOSIG
Loading
Personal Weather Stations






























Interactive Weather Map New forecast layout! Learn more

10-Day Weather Forecast

Advertisements
Track Severe Weather on mobile